Terminal Aerodrome Forecast
Issued by NWS Bismarck, ND

Home | Current Version | Previous Version | Text Only | Print | Product List | Glossary Off
Versions: 1 2 3 4 5 6 7 8 9 10 11 12 13 14 15 16 17 18 19 20 21 22

000
FTUS43 KBIS 200400 AAA
TAFISN
TAF AMD
KISN 200403Z 2004/2024 VRB03KT 1/4SM FZFG OVC001
      TEMPO 2004/2008 3SM BR OVC002
     FM200800 VRB03KT 1/2SM FZFG OVC002
     FM201800 24008KT P6SM SCT005 BKN100=

USA.gov is the U.S. government's official web portal to all federal, state and local government web resources and services.